Time;durP1;ratioP1;P1;durP2;ratioP2;P2;SDS_P1;SDS_P2;PMS_P1;PMS_P2;Temp;Humidity;BMP_temperature;BMP_pressure;BME280_temperature;BME280_humidity;BME280_pressure;Samples;Min_cycle;Max_cycle;Signal;HPM_P1;HPM_P2
2022/06/03 00:01:25;;;;;;;7.88;5.10;;;11.30;99.90;;;;;;4962472;29;20047;-57
2022/06/03 00:04:14;;;;;;;9.55;5.90;;;11.30;99.90;;;;;;4964672;29;20066;-57
2022/06/03 00:06:48;;;;;;;10.73;6.10;;;11.20;99.90;;;;;;4946210;29;20145;-57
2022/06/03 00:09:51;;;;;;;10.80;5.95;;;11.20;99.90;;;;;;4963570;29;20089;-57
2022/06/03 00:12:43;;;;;;;9.18;6.05;;;11.20;99.90;;;;;;4964735;29;20074;-57
2022/06/03 00:15:20;;;;;;;10.48;6.25;;;11.20;99.90;;;;;;4945688;29;20051;-55
2022/06/03 00:18:08;;;;;;;8.82;5.47;;;11.20;99.90;;;;;;4963316;29;20051;-57
2022/06/03 00:20:33;;;;;;;10.07;5.60;;;11.20;99.90;;;;;;4964669;29;20047;-56
2022/06/03 00:23:02;;;;;;;10.82;5.88;;;11.10;99.90;;;;;;4962366;29;20468;-57
2022/06/03 00:26:06;;;;;;;8.50;5.97;;;11.10;99.90;;;;;;4964320;29;20111;-57
2022/06/03 00:28:59;;;;;;;9.70;5.38;;;11.10;99.90;;;;;;4962790;28;20051;-57
2022/06/03 00:32:13;;;;;;;11.23;5.30;;;11.10;99.90;;;;;;4944745;29;20047;-57
2022/06/03 00:34:52;;;;;;;9.07;5.40;;;11.00;99.90;;;;;;4885261;29;20065;-57
2022/06/03 00:37:35;;;;;;;10.93;5.53;;;11.00;99.90;;;;;;4885744;29;20094;-57
2022/06/03 00:40:27;;;;;;;9.20;5.55;;;11.00;99.90;;;;;;4940804;28;20506;-57
2022/06/03 00:43:09;;;;;;;7.40;4.82;;;11.00;99.90;;;;;;4966713;28;20055;-57
2022/06/03 00:46:33;;;;;;;9.10;5.20;;;10.90;99.90;;;;;;4982686;28;20129;-57
2022/06/03 00:49:19;;;;;;;11.10;5.80;;;10.90;99.90;;;;;;4920885;29;20318;-57
2022/06/03 00:52:09;;;;;;;10.95;6.07;;;10.90;99.90;;;;;;4949276;28;20062;-57
2022/06/03 00:54:40;;;;;;;8.85;5.70;;;11.00;99.90;;;;;;4978085;28;20103;-57
2022/06/03 00:57:38;;;;;;;8.60;5.33;;;10.90;99.90;;;;;;4942373;29;20062;-57
2022/06/03 01:00:04;;;;;;;10.73;6.22;;;10.90;99.90;;;;;;4944060;29;20130;-58
2022/06/03 01:03:04;;;;;;;11.00;6.30;;;10.90;99.90;;;;;;4943116;29;20052;-56
2022/06/03 01:05:52;;;;;;;9.30;6.28;;;10.80;99.90;;;;;;4942243;29;20055;-57
2022/06/03 01:08:45;;;;;;;12.65;5.65;;;10.80;99.90;;;;;;4944338;29;20055;-57
2022/06/03 01:11:29;;;;;;;10.60;6.88;;;10.80;99.90;;;;;;4943460;29;20039;-57
2022/06/03 01:14:14;;;;;;;10.80;6.28;;;10.80;99.90;;;;;;4942519;29;20048;-57
2022/06/03 01:17:01;;;;;;;10.25;6.25;;;10.80;99.90;;;;;;4944426;29;20056;-57
2022/06/03 01:19:49;;;;;;;9.55;6.68;;;10.80;99.90;;;;;;4942907;29;20051;-57
2022/06/03 01:22:33;;;;;;;10.27;6.45;;;10.80;99.90;;;;;;4942781;29;20055;-58
2022/06/03 01:25:13;;;;;;;12.57;6.72;;;10.70;99.90;;;;;;4944108;29;20066;-57
2022/06/03 01:27:41;;;;;;;11.27;6.30;;;10.70;99.90;;;;;;4942334;29;20040;-58
2022/06/03 01:30:25;;;;;;;12.07;6.53;;;10.70;99.90;;;;;;4943748;29;20099;-58
2022/06/03 01:33:12;;;;;;;9.88;5.75;;;10.70;99.90;;;;;;4943216;29;20087;-56
2022/06/03 01:36:17;;;;;;;9.20;5.90;;;10.70;99.90;;;;;;4941786;29;20051;-57
2022/06/03 01:38:53;;;;;;;11.82;6.07;;;10.70;99.90;;;;;;4943806;29;20055;-57
2022/06/03 01:41:56;;;;;;;9.70;6.55;;;10.60;99.90;;;;;;4973183;28;20043;-57
2022/06/03 01:44:59;;;;;;;9.43;6.07;;;10.60;99.90;;;;;;4980080;28;20055;-59
2022/06/03 01:47:24;;;;;;;10.15;6.13;;;10.60;99.90;;;;;;4981703;28;20514;-57
2022/06/03 01:50:12;;;;;;;11.82;6.57;;;10.60;99.90;;;;;;4964138;28;20047;-57
2022/06/03 01:52:44;;;;;;;9.27;6.13;;;10.60;99.90;;;;;;4980088;28;20073;-56
2022/06/03 01:55:29;;;;;;;10.75;6.95;;;10.60;99.90;;;;;;4967945;28;20117;-57
2022/06/03 01:58:14;;;;;;;10.88;6.70;;;10.60;99.90;;;;;;4941758;29;20051;-57
2022/06/03 02:00:47;;;;;;;12.65;7.13;;;10.60;99.90;;;;;;4942209;29;20504;-57
2022/06/03 02:03:58;;;;;;;12.18;6.60;;;10.60;99.90;;;;;;4926201;29;20052;-57
2022/06/03 02:06:54;;;;;;;11.10;6.63;;;10.50;99.90;;;;;;4924488;29;20063;-57
2022/06/03 02:09:41;;;;;;;10.40;7.25;;;10.50;99.90;;;;;;4941963;29;20063;-57
2022/06/03 02:12:26;;;;;;;11.20;7.32;;;10.50;99.90;;;;;;4943234;29;20039;-57
2022/06/03 02:15:15;;;;;;;11.77;7.10;;;10.50;99.90;;;;;;4941113;29;20051;-55
2022/06/03 02:18:03;;;;;;;12.02;7.35;;;10.50;99.90;;;;;;4942211;29;20047;-57
2022/06/03 02:20:51;;;;;;;11.13;7.25;;;10.50;99.90;;;;;;4943167;29;20048;-57
2022/06/03 02:23:44;;;;;;;12.15;7.80;;;10.40;99.90;;;;;;4923955;29;20054;-57
2022/06/03 02:26:54;;;;;;;13.57;7.95;;;10.50;99.90;;;;;;4942221;29;20044;-57
2022/06/03 02:32:56;;;;;;;10.40;7.40;;;10.40;99.90;;;;;;4941732;29;20047;-56
2022/06/03 02:35:58;;;;;;;13.20;7.57;;;10.40;99.90;;;;;;4940863;29;20287;-57
2022/06/03 02:38:27;;;;;;;10.57;6.88;;;10.40;99.90;;;;;;4925415;29;20051;-57
2022/06/03 02:41:54;;;;;;;11.10;7.07;;;10.40;99.90;;;;;;4964313;28;20074;-57
2022/06/03 02:44:51;;;;;;;12.38;7.32;;;10.40;99.90;;;;;;4924739;28;20138;-57
2022/06/03 02:47:28;;;;;;;12.27;7.28;;;10.40;99.90;;;;;;4981015;28;20069;-57
2022/06/03 02:50:18;;;;;;;10.63;7.00;;;10.40;99.90;;;;;;4980401;28;20057;-57
2022/06/03 02:52:58;;;;;;;11.68;7.35;;;10.30;99.90;;;;;;4978229;28;20041;-57
2022/06/03 02:55:24;;;;;;;10.45;7.40;;;10.40;99.90;;;;;;4963354;28;20040;-57
2022/06/03 02:58:11;;;;;;;11.13;7.25;;;10.30;99.90;;;;;;4940793;29;20082;-57
2022/06/03 03:00:57;;;;;;;11.82;7.22;;;10.30;99.90;;;;;;4924412;29;20060;-57
2022/06/03 03:03:26;;;;;;;12.95;8.07;;;10.30;99.90;;;;;;4942619;29;20036;-57
2022/06/03 03:06:23;;;;;;;10.75;7.00;;;10.30;99.90;;;;;;4923146;29;20066;-57
2022/06/03 03:09:20;;;;;;;11.65;7.70;;;10.20;99.90;;;;;;4942154;29;20047;-57
2022/06/03 03:12:07;;;;;;;13.90;7.25;;;10.20;99.90;;;;;;4942390;29;20054;-59
2022/06/03 03:14:52;;;;;;;13.45;7.80;;;10.20;99.90;;;;;;4940418;29;20123;-57
2022/06/03 03:17:37;;;;;;;11.85;7.70;;;10.20;99.90;;;;;;4942099;29;20055;-58
2022/06/03 03:20:33;;;;;;;13.38;7.63;;;10.20;99.90;;;;;;4941923;29;20095;-56
2022/06/03 03:23:21;;;;;;;11.95;7.57;;;10.20;99.90;;;;;;4940081;29;20111;-57
2022/06/03 03:26:15;;;;;;;13.35;7.82;;;10.20;99.90;;;;;;4942195;29;20050;-57
2022/06/03 03:28:59;;;;;;;12.10;7.72;;;10.10;99.90;;;;;;4941872;29;20071;-57
2022/06/03 03:31:43;;;;;;;11.63;7.88;;;10.10;99.90;;;;;;4939949;29;20059;-57
2022/06/03 03:34:32;;;;;;;12.15;7.75;;;10.20;99.90;;;;;;4924952;29;20047;-57
2022/06/03 03:37:30;;;;;;;12.15;7.80;;;10.10;99.90;;;;;;4941795;29;20469;-57
2022/06/03 03:40:07;;;;;;;12.95;7.60;;;10.10;99.90;;;;;;4947667;28;20053;-57
2022/06/03 03:43:01;;;;;;;14.07;7.78;;;10.10;99.90;;;;;;4980529;28;20054;-56
2022/06/03 03:46:04;;;;;;;11.80;7.45;;;10.20;99.90;;;;;;4979913;28;20047;-57
2022/06/03 03:48:55;;;;;;;12.50;8.20;;;10.20;99.90;;;;;;4978540;28;20058;-58
2022/06/03 03:51:23;;;;;;;11.00;7.90;;;10.20;99.90;;;;;;4980599;28;20404;-57
2022/06/03 03:54:25;;;;;;;11.55;8.10;;;10.30;99.90;;;;;;4979592;28;20061;-56
2022/06/03 03:56:54;;;;;;;11.65;7.65;;;10.30;99.90;;;;;;4940117;29;20066;-57
2022/06/03 03:59:46;;;;;;;12.25;7.22;;;10.30;99.90;;;;;;4942236;29;20044;-58
2022/06/03 04:02:35;;;;;;;12.15;7.80;;;10.40;99.90;;;;;;4940476;29;20276;-56
2022/06/03 04:05:31;;;;;;;11.57;7.32;;;10.40;99.90;;;;;;4942755;29;20044;-57
2022/06/03 04:08:28;;;;;;;11.52;7.53;;;10.40;99.90;;;;;;4945671;29;20168;-57
2022/06/03 04:11:14;;;;;;;11.27;8.15;;;10.50;99.90;;;;;;4944303;29;20075;-57
2022/06/03 04:14:01;;;;;;;10.85;8.00;;;10.50;99.90;;;;;;4944033;29;20505;-57
2022/06/03 04:17:05;;;;;;;12.32;7.60;;;10.50;99.90;;;;;;4928134;29;20059;-57
2022/06/03 04:19:34;;;;;;;13.10;8.18;;;10.60;99.90;;;;;;4944191;29;20048;-56
2022/06/03 04:22:34;;;;;;;11.30;7.88;;;10.60;99.90;;;;;;4926871;29;20048;-57
2022/06/03 04:25:24;;;;;;;10.23;7.03;;;10.60;99.90;;;;;;4945427;29;20107;-57
2022/06/03 04:28:05;;;;;;;11.48;7.60;;;10.70;99.90;;;;;;4943397;29;20058;-57
2022/06/03 04:30:49;;;;;;;11.27;7.68;;;10.80;99.90;;;;;;4943764;29;20056;-58
2022/06/03 04:33:52;;;;;;;12.95;8.32;;;10.80;99.90;;;;;;4945069;29;20048;-58
2022/06/03 04:37:28;;;;;;;12.27;7.25;;;10.90;99.90;;;;;;4943245;29;20055;-58
2022/06/03 04:40:18;;;;;;;11.90;7.40;;;10.90;99.90;;;;;;4890716;29;20087;-57
2022/06/03 04:43:15;;;;;;;12.95;8.27;;;11.00;99.90;;;;;;4907510;29;20078;-57
2022/06/03 04:46:14;;;;;;;14.60;7.75;;;11.10;99.90;;;;;;4973026;28;20070;-56
2022/06/03 04:49:18;;;;;;;11.77;7.10;;;11.20;99.90;;;;;;4981161;28;20566;-57
2022/06/03 04:52:05;;;;;;;16.98;7.95;;;11.30;99.90;;;;;;4982644;28;20045;-57
2022/06/03 04:54:30;;;;;;;14.93;7.53;;;11.30;99.90;;;;;;4979590;28;20047;-57
2022/06/03 04:57:29;;;;;;;13.30;7.70;;;11.50;99.90;;;;;;4942439;29;20054;-57
2022/06/03 05:00:16;;;;;;;12.27;7.75;;;11.60;99.90;;;;;;4927169;29;20047;-57
2022/06/03 05:03:03;;;;;;;15.18;7.65;;;11.70;99.90;;;;;;4943974;29;20396;-57
2022/06/03 05:05:34;;;;;;;11.63;6.97;;;11.80;99.90;;;;;;4942330;29;20059;-57
2022/06/03 05:08:12;;;;;;;12.68;7.35;;;11.90;99.90;;;;;;4944416;29;20047;-57
2022/06/03 05:10:59;;;;;;;13.35;6.78;;;11.90;99.90;;;;;;4925440;29;20182;-57
2022/06/03 05:14:02;;;;;;;12.38;6.70;;;12.00;99.90;;;;;;4943301;29;20071;-57
2022/06/03 05:16:45;;;;;;;13.93;7.38;;;12.00;99.90;;;;;;4926955;29;20130;-58
2022/06/03 05:19:33;;;;;;;11.50;6.85;;;12.10;99.90;;;;;;4942648;29;20128;-57
2022/06/03 05:22:13;;;;;;;10.43;6.55;;;12.20;99.90;;;;;;4942768;29;20052;-57
2022/06/03 05:24:42;;;;;;;10.68;6.82;;;12.30;99.90;;;;;;4944382;29;20051;-57
2022/06/03 05:27:23;;;;;;;12.70;6.97;;;12.30;99.90;;;;;;4941796;29;20051;-56
2022/06/03 05:29:54;;;;;;;11.80;7.45;;;12.40;99.90;;;;;;4943738;29;20063;-56
2022/06/03 05:32:54;;;;;;;12.30;7.95;;;12.50;99.90;;;;;;4942504;29;20071;-57
2022/06/03 05:35:39;;;;;;;11.45;7.40;;;12.60;99.90;;;;;;4941925;29;20044;-57
2022/06/03 05:38:40;;;;;;;13.52;7.10;;;12.70;99.90;;;;;;4926765;29;20111;-58
2022/06/03 05:44:56;;;;;;;10.52;7.05;;;12.80;99.90;;;;;;4980247;28;20053;-57
2022/06/03 05:47:29;;;;;;;11.43;7.47;;;12.90;99.90;;;;;;4981851;28;20109;-60
2022/06/03 05:50:11;;;;;;;11.20;7.20;;;13.00;99.90;;;;;;4981667;28;20055;-56
2022/06/03 05:52:40;;;;;;;;;;;13.10;99.90;;;;;;4963380;28;20418;-58
2022/06/03 05:55:34;;;;;;;12.40;7.22;;;13.10;99.90;;;;;;4951657;29;19946;-57
2022/06/03 05:58:43;;;;;;;12.95;7.10;;;13.20;99.90;;;;;;4942342;29;20135;-57
2022/06/03 06:01:41;;;;;;;11.00;6.85;;;13.30;99.90;;;;;;4941090;29;20601;-58
2022/06/03 06:04:28;;;;;;;10.65;6.05;;;13.30;99.90;;;;;;4943281;29;20078;-57
2022/06/03 06:07:26;;;;;;;9.55;5.40;;;13.50;99.90;;;;;;4942797;29;20055;-57
2022/06/03 06:10:08;;;;;;;9.48;5.28;;;13.50;99.90;;;;;;4941118;29;20051;-57
2022/06/03 06:12:58;;;;;;;10.05;5.75;;;13.50;99.90;;;;;;4943424;29;20486;-57
2022/06/03 06:15:45;;;;;;;9.43;4.93;;;13.70;99.90;;;;;;4925486;29;20083;-57
2022/06/03 06:18:29;;;;;;;9.68;5.68;;;13.80;99.90;;;;;;4940983;29;20674;-57
2022/06/03 06:20:58;;;;;;;9.70;4.78;;;13.90;99.90;;;;;;4943476;29;20123;-57
2022/06/03 06:23:44;;;;;;;7.05;4.70;;;14.00;99.90;;;;;;4941431;29;20082;-57
2022/06/03 06:26:41;;;;;;;8.50;4.75;;;14.10;99.90;;;;;;4941685;29;20050;-57
2022/06/03 06:29:21;;;;;;;12.60;4.63;;;14.20;99.90;;;;;;4942990;29;20059;-57
2022/06/03 06:32:05;;;;;;;9.88;4.60;;;14.20;99.90;;;;;;4940805;29;20080;-57
2022/06/03 06:35:07;;;;;;;9.80;4.57;;;14.30;99.90;;;;;;4942445;29;20056;-57
2022/06/03 06:37:36;;;;;;;;;;;14.30;99.90;;;;;;4941008;29;20507;-57
2022/06/03 06:40:07;;;;;;;9.60;5.72;;;14.30;99.90;;;;;;4947215;28;19985;-57
2022/06/03 06:42:44;;;;;;;7.20;4.20;;;14.50;99.90;;;;;;4977741;28;20057;-57
2022/06/03 06:45:29;;;;;;;8.88;5.07;;;14.60;99.90;;;;;;4959569;28;20400;-56
2022/06/03 06:48:32;;;;;;;9.10;4.40;;;14.70;99.90;;;;;;4976228;28;20047;-58
2022/06/03 06:51:22;;;;;;;11.82;4.50;;;14.80;99.90;;;;;;4978116;28;20055;-57
2022/06/03 06:53:54;;;;;;;7.63;3.72;;;14.80;99.90;;;;;;4976884;28;20131;-56
2022/06/03 06:56:48;;;;;;;8.05;4.00;;;14.80;99.90;;;;;;4943431;28;20917;-57
2022/06/03 06:59:27;;;;;;;5.85;2.80;;;15.00;99.90;;;;;;4939451;29;20133;-57
2022/06/03 07:02:22;;;;;;;11.57;3.00;;;15.10;99.90;;;;;;4936940;29;20044;-57
2022/06/03 07:04:55;;;;;;;8.20;3.95;;;15.10;99.90;;;;;;4938168;29;20079;-57
2022/06/03 07:07:48;;;;;;;7.05;3.17;;;15.10;99.90;;;;;;4939521;29;20074;-57
2022/06/03 07:10:24;;;;;;;7.57;2.90;;;15.20;99.90;;;;;;4937191;29;20083;-58
2022/06/03 07:13:02;;;;;;;6.18;2.75;;;15.40;99.90;;;;;;4938685;29;20044;-57
2022/06/03 07:16:05;;;;;;;6.78;2.33;;;15.40;99.90;;;;;;4961013;28;20043;-57
2022/06/03 07:21:57;;;;;;;6.47;2.45;;;15.40;99.90;;;;;;4977135;28;20058;-58
2022/06/03 07:24:46;;;;;;;5.85;2.53;;;15.50;99.90;;;;;;4960340;28;20050;-57
2022/06/03 07:27:42;;;;;;;6.65;2.72;;;15.70;99.90;;;;;;4975609;28;20094;-57
2022/06/03 07:30:08;;;;;;;8.95;2.78;;;15.70;99.90;;;;;;4959304;28;20161;-57
2022/06/03 07:32:43;;;;;;;7.38;2.72;;;15.90;99.90;;;;;;4977036;28;20093;-57
2022/06/03 07:35:44;;;;;;;7.22;2.58;;;15.90;99.90;;;;;;4975894;28;20047;-57
2022/06/03 07:38:25;;;;;;;6.57;2.40;;;16.00;99.90;;;;;;4978103;28;20046;-57
2022/06/03 07:41:14;;;;;;;6.40;2.13;;;16.10;99.90;;;;;;4968674;28;20167;-58
2022/06/03 07:44:14;;;;;;;5.15;2.10;;;16.10;99.90;;;;;;4942436;29;20101;-58
2022/06/03 07:46:45;;;;;;;10.18;2.42;;;16.30;99.90;;;;;;4944894;29;20066;-57
2022/06/03 07:49:11;;;;;;;5.72;2.10;;;16.40;99.90;;;;;;4942669;29;20055;-58
2022/06/03 07:51:41;;;;;;;5.95;2.05;;;16.50;99.90;;;;;;4961510;29;20086;-57
2022/06/03 07:54:30;;;;;;;5.65;2.20;;;16.50;99.90;;;;;;4943823;29;20055;-57
2022/06/03 07:57:08;;;;;;;5.10;1.83;;;16.50;99.90;;;;;;4940464;29;20056;-57
2022/06/03 07:59:38;;;;;;;4.75;1.60;;;16.60;99.90;;;;;;4942603;29;20055;-58
2022/06/03 08:02:24;;;;;;;6.20;2.08;;;16.50;99.90;;;;;;4940593;29;20055;-57
2022/06/03 08:05:04;;;;;;;5.32;1.50;;;16.50;99.90;;;;;;4941644;29;20503;-56
2022/06/03 08:13:09;;;;;;;4.25;1.95;;;16.80;99.90;;;;;;4964746;28;20055;-58
2022/06/03 08:15:41;;;;;;;4.32;1.50;;;16.90;99.90;;;;;;4963859;29;20404;-57
2022/06/03 08:18:13;;;;;;;5.10;1.92;;;17.10;99.90;;;;;;4974846;28;20047;-57
2022/06/03 08:20:45;;;;;;;3.95;1.42;;;17.00;99.90;;;;;;4983871;28;20043;-57
2022/06/03 08:23:11;;;;;;;;;;;17.10;99.90;;;;;;4979834;28;20035;-58
2022/06/03 08:25:41;;;;;;;5.05;1.70;;;17.20;99.90;;;;;;4954597;28;19953;-57
2022/06/03 08:28:12;;;;;;;4.85;1.80;;;17.20;99.90;;;;;;4956505;29;21759;-57
2022/06/03 08:30:39;;;;;;;6.93;1.75;;;17.40;99.90;;;;;;4937604;29;20047;-58
2022/06/03 08:33:09;;;;;;;5.38;1.50;;;17.30;99.90;;;;;;4937996;29;20055;-58
2022/06/03 08:35:38;;;;;;;4.63;1.52;;;17.40;99.90;;;;;;4954901;29;20070;-58
2022/06/03 08:38:30;;;;;;;4.90;1.70;;;17.40;99.90;;;;;;4957164;29;20491;-58
2022/06/03 08:41:02;;;;;;;4.53;1.52;;;17.50;99.90;;;;;;4947524;28;20066;-58
2022/06/03 08:43:56;;;;;;;5.60;1.77;;;17.60;99.90;;;;;;4955617;29;20459;-59
2022/06/03 08:46:28;;;;;;;4.55;1.50;;;17.70;99.90;;;;;;4956989;29;20058;-58
2022/06/03 08:49:05;;;;;;;4.40;1.90;;;17.80;99.90;;;;;;4953906;29;20054;-58
2022/06/03 08:51:40;;;;;;;6.05;1.80;;;17.90;99.90;;;;;;4960063;29;20066;-58
2022/06/03 08:54:27;;;;;;;5.97;1.63;;;17.90;99.90;;;;;;4963088;29;20047;-57
2022/06/03 08:57:00;;;;;;;4.47;1.75;;;18.00;99.90;;;;;;4942418;29;20106;-58
2022/06/03 08:59:48;;;;;;;5.05;2.10;;;18.10;99.90;;;;;;4944415;29;20535;-58
2022/06/03 09:02:39;;;;;;;5.70;2.00;;;18.10;99.90;;;;;;4943125;29;20419;-58
2022/06/03 09:05:12;;;;;;;7.18;2.10;;;18.20;99.90;;;;;;4942747;29;20048;-58
2022/06/03 09:07:49;;;;;;;3.95;1.98;;;18.30;99.90;;;;;;4926836;29;20051;-57
2022/06/03 09:10:37;;;;;;;5.25;2.08;;;18.40;99.90;;;;;;4941041;29;20140;-58
2022/06/03 09:13:30;;;;;;;5.30;2.20;;;18.50;99.90;;;;;;4943230;29;20047;-58
2022/06/03 09:15:56;;;;;;;6.25;2.33;;;18.30;99.90;;;;;;4943771;29;20112;-58
2022/06/03 09:18:39;;;;;;;5.03;2.58;;;18.50;99.90;;;;;;4924912;29;20522;-59
2022/06/03 09:21:10;;;;;;;5.85;2.45;;;18.60;99.90;;;;;;4944198;29;20461;-58
2022/06/03 09:23:49;;;;;;;5.93;2.42;;;18.70;99.90;;;;;;4942305;28;20928;-58
2022/06/03 09:26:23;;;;;;;8.07;2.55;;;18.80;99.90;;;;;;4961921;28;20158;-58
2022/06/03 09:28:50;;;;;;;6.82;2.50;;;18.90;99.90;;;;;;4962941;29;20058;-58
2022/06/03 09:31:17;;;;;;;5.65;2.10;;;18.80;99.90;;;;;;4943371;29;20039;-57
2022/06/03 09:33:45;;;;;;;6.85;2.38;;;18.80;99.90;;;;;;4962978;29;20087;-58
2022/06/03 09:36:15;;;;;;;6.38;2.25;;;18.80;99.90;;;;;;4961130;29;20091;-58
2022/06/03 09:39:04;;;;;;;6.13;2.60;;;18.90;99.90;;;;;;4962486;29;20472;-58
2022/06/03 09:41:41;;;;;;;7.60;2.55;;;19.10;99.90;;;;;;4979360;28;20061;-58
2022/06/03 09:44:11;;;;;;;5.85;2.20;;;19.00;99.90;;;;;;4979820;28;20542;-58
2022/06/03 09:46:39;;;;;;;6.28;2.30;;;19.20;99.90;;;;;;4981957;28;20047;-58
2022/06/03 09:49:06;;;;;;;5.15;2.42;;;19.20;99.90;;;;;;4963298;28;20109;-58
2022/06/03 09:51:56;;;;;;;5.97;2.42;;;19.20;99.90;;;;;;4981616;28;20055;-59
2022/06/03 09:54:24;;;;;;;5.57;2.63;;;19.30;99.90;;;;;;4980581;28;20054;-58
2022/06/03 09:56:53;;;;;;;5.70;2.33;;;19.20;99.90;;;;;;4941021;29;20044;-59
2022/06/03 09:59:21;;;;;;;6.80;2.45;;;19.20;99.90;;;;;;4943473;29;20055;-58
2022/06/03 10:01:48;;;;;;;6.20;2.42;;;19.20;99.90;;;;;;4941017;29;20083;-58
2022/06/03 10:04:16;;;;;;;5.07;2.35;;;19.20;99.90;;;;;;4943260;29;20047;-58
2022/06/03 10:06:48;;;;;;;9.10;2.88;;;19.40;99.90;;;;;;4942574;29;20123;-58
2022/06/03 10:17:49;;;;;;;5.97;2.28;;;19.60;99.90;;;;;;4958905;28;20051;-58
2022/06/03 10:20:16;;;;;;;5.70;2.57;;;19.60;99.90;;;;;;4970282;28;20459;-57
2022/06/03 10:22:44;;;;;;;6.82;3.05;;;19.50;99.90;;;;;;4966123;28;20283;-58
2022/06/03 10:25:11;;;;;;;5.35;2.30;;;19.60;99.90;;;;;;4970155;28;20043;-58
2022/06/03 10:27:36;;;;;;;6.53;2.58;;;19.80;99.90;;;;;;4968726;28;20070;-60
2022/06/03 10:30:05;;;;;;;6.60;2.10;;;19.80;99.90;;;;;;4951653;29;20086;-58
2022/06/03 10:32:32;;;;;;;5.18;2.20;;;19.90;99.90;;;;;;4961513;28;20057;-59
2022/06/03 10:35:29;;;;;;;7.18;2.30;;;19.90;99.90;;;;;;4969402;28;20050;-58
2022/06/03 10:38:03;;;;;;;6.90;2.30;;;19.70;99.90;;;;;;4966618;28;20117;-58
2022/06/03 10:40:30;;;;;;;5.72;2.40;;;20.00;99.90;;;;;;4970208;28;20047;-58
2022/06/03 10:42:59;;;;;;;5.75;2.38;;;20.10;99.90;;;;;;4965642;28;20826;-58
2022/06/03 10:45:36;;;;;;;6.50;2.45;;;20.10;99.90;;;;;;4965979;28;20051;-58
2022/06/03 10:48:18;;;;;;;8.35;2.38;;;20.10;99.90;;;;;;4940699;29;20035;-58
2022/06/03 10:50:44;;;;;;;6.63;2.90;;;20.10;99.90;;;;;;4942597;29;20382;-58
2022/06/03 11:01:51;;;;;;;5.85;2.20;;;20.20;99.90;;;;;;4959395;29;20083;-58
2022/06/03 11:04:25;;;;;;;6.43;2.70;;;20.30;99.90;;;;;;4961183;29;20047;-58
2022/06/03 11:06:51;;;;;;;5.50;2.45;;;20.50;99.90;;;;;;4960989;29;20051;-58
2022/06/03 11:09:19;;;;;;;5.45;2.70;;;20.50;99.90;;;;;;4960037;29;20046;-58
2022/06/03 11:12:04;;;;;;;4.88;2.20;;;20.60;99.90;;;;;;4961284;29;20047;-58
2022/06/03 11:14:41;;;;;;;8.70;2.60;;;20.70;99.90;;;;;;4941886;29;20055;-58
2022/06/03 11:17:18;;;;;;;7.18;2.28;;;20.60;99.90;;;;;;4960895;29;20066;-58
2022/06/03 11:19:56;;;;;;;5.07;2.25;;;20.60;99.90;;;;;;4961105;29;20075;-58
2022/06/03 11:22:32;;;;;;;5.43;2.17;;;20.60;99.90;;;;;;4959353;29;20054;-58
2022/06/03 11:25:16;;;;;;;5.70;2.33;;;20.40;99.90;;;;;;4961159;29;20082;-58
2022/06/03 11:28:02;;;;;;;5.53;2.17;;;20.60;99.90;;;;;;4959484;29;20117;-58
2022/06/03 11:30:32;;;;;;;5.65;2.30;;;20.50;99.90;;;;;;4959698;29;20052;-58
2022/06/03 11:33:04;;;;;;;5.35;2.20;;;20.60;99.90;;;;;;4961049;29;20113;-58
2022/06/03 11:35:50;;;;;;;5.40;2.13;;;20.70;99.90;;;;;;4959125;29;20043;-58
2022/06/03 11:38:29;;;;;;;6.70;2.70;;;20.80;99.90;;;;;;4961065;29;20058;-58
2022/06/03 11:40:58;;;;;;;6.45;2.03;;;20.80;99.90;;;;;;4972142;28;20819;-58
2022/06/03 11:43:44;;;;;;;5.00;2.03;;;21.00;99.90;;;;;;4978868;28;20119;-58
2022/06/03 11:46:19;;;;;;;7.00;2.42;;;21.10;99.90;;;;;;4961103;29;20047;-59
2022/06/03 11:48:48;;;;;;;5.15;2.20;;;20.90;99.90;;;;;;4958951;29;20062;-59
2022/06/03 11:51:14;;;;;;;5.10;2.38;;;20.60;99.90;;;;;;4927771;29;20570;-58
2022/06/03 11:53:47;;;;;;;6.13;2.42;;;20.70;99.90;;;;;;4942413;29;20047;-58
2022/06/03 11:56:19;;;;;;;7.03;2.78;;;20.80;99.90;;;;;;4959600;29;20102;-58
2022/06/03 11:58:55;;;;;;;4.40;1.92;;;20.90;99.90;;;;;;4961203;29;20075;-58
2022/06/03 12:01:35;;;;;;;5.10;2.30;;;20.50;99.90;;;;;;4958807;29;20047;-58
2022/06/03 12:04:01;;;;;;;7.90;2.60;;;20.60;99.90;;;;;;4960826;29;20047;-58
2022/06/03 12:06:39;;;;;;;5.82;2.60;;;20.70;99.90;;;;;;4959988;29;20047;-58
2022/06/03 12:09:26;;;;;;;5.95;2.58;;;20.70;99.90;;;;;;4959728;29;20127;-59
2022/06/03 12:15:34;;;;;;;6.38;2.88;;;20.90;99.90;;;;;;4941846;29;20083;-59
2022/06/03 12:18:11;;;;;;;6.80;2.67;;;20.90;99.90;;;;;;4919771;29;20407;-58
2022/06/03 12:20:50;;;;;;;6.38;2.22;;;20.70;99.90;;;;;;4960766;29;20407;-58
2022/06/03 12:23:16;;;;;;;4.93;2.35;;;20.70;99.90;;;;;;4941571;29;20058;-57
2022/06/03 12:26:03;;;;;;;6.03;2.60;;;20.70;99.90;;;;;;4962053;28;20052;-58
2022/06/03 12:28:45;;;;;;;5.75;2.53;;;20.60;99.90;;;;;;4963477;29;20070;-58
2022/06/03 12:31:22;;;;;;;5.68;2.10;;;20.90;99.90;;;;;;4959833;29;20111;-57
2022/06/03 12:34:21;;;;;;;4.53;2.25;;;21.00;99.90;;;;;;4962873;29;20427;-58
2022/06/03 12:36:53;;;;;;;5.28;2.15;;;20.80;99.90;;;;;;4957755;29;20078;-58
2022/06/03 12:39:23;;;;;;;6.75;2.22;;;20.60;99.90;;;;;;4962131;29;20108;-58
2022/06/03 12:41:49;;;;;;;7.00;2.30;;;20.80;99.90;;;;;;4983286;28;20057;-58
2022/06/03 12:44:49;;;;;;;6.85;2.25;;;20.80;99.90;;;;;;4981399;28;20054;-58
2022/06/03 12:47:35;;;;;;;5.32;1.90;;;20.90;99.90;;;;;;4982973;28;20047;-58
2022/06/03 12:50:04;;;;;;;5.13;1.80;;;20.80;99.90;;;;;;4983211;28;20106;-58
2022/06/03 12:52:29;;;;;;;4.78;1.70;;;20.90;99.90;;;;;;4981051;28;20058;-57
2022/06/03 12:54:59;;;;;;;6.18;1.90;;;21.00;99.90;;;;;;4973133;28;20044;-58
2022/06/03 12:57:37;;;;;;;4.78;1.48;;;21.00;99.90;;;;;;4942817;29;20044;-57
2022/06/03 13:00:06;;;;;;;6.57;1.58;;;20.90;99.90;;;;;;4943773;29;20056;-58
2022/06/03 13:02:36;;;;;;;6.53;1.50;;;20.80;99.90;;;;;;4943977;29;20032;-58
2022/06/03 13:05:02;;;;;;;4.30;1.35;;;20.80;99.90;;;;;;4942680;29;20047;-58
2022/06/03 13:07:27;;;;;;;4.95;1.30;;;20.80;99.90;;;;;;4944358;29;20063;-57
2022/06/03 13:09:59;;;;;;;5.07;1.33;;;20.80;99.90;;;;;;4942414;29;20059;-58
2022/06/03 13:12:31;;;;;;;3.50;1.30;;;20.70;99.90;;;;;;4944409;29;20128;-59
2022/06/03 13:15:16;;;;;;;5.60;1.40;;;20.80;99.90;;;;;;4926125;29;20055;-59
2022/06/03 13:18:09;;;;;;;6.78;1.50;;;20.80;99.90;;;;;;4927608;29;20047;-59
2022/06/03 13:20:40;;;;;;;5.63;1.35;;;20.60;99.90;;;;;;4946488;29;20087;-59
2022/06/03 13:23:29;;;;;;;4.82;1.50;;;20.50;99.90;;;;;;4942636;29;20048;-58
2022/06/03 13:26:21;;;;;;;3.90;1.27;;;20.60;99.90;;;;;;4943279;29;20057;-58
2022/06/03 13:28:48;;;;;;;;;;;20.40;99.90;;;;;;4944438;29;20048;-59
2022/06/03 13:31:58;;;;;;;3.70;1.20;;;20.20;99.90;;;;;;4941807;29;19922;-58
2022/06/03 13:34:29;;;;;;;3.78;1.10;;;20.40;99.90;;;;;;4943454;29;20053;-58
2022/06/03 13:37:17;;;;;;;5.18;1.30;;;20.30;99.90;;;;;;4943390;29;20054;-59
2022/06/03 13:39:42;;;;;;;3.45;1.50;;;20.40;99.90;;;;;;4945719;28;20054;-58
2022/06/03 13:45:02;;;;;;;4.82;1.30;;;20.50;99.90;;;;;;4980902;28;20175;-58
2022/06/03 13:47:47;;;;;;;2.40;0.93;;;20.40;99.90;;;;;;4963841;28;20261;-58
2022/06/03 13:50:12;;;;;;;5.53;1.38;;;20.30;99.90;;;;;;4981898;28;20051;-58
2022/06/03 13:52:49;;;;;;;3.38;1.10;;;20.40;99.90;;;;;;4979536;28;20126;-59
2022/06/03 13:55:37;;;;;;;3.70;0.98;;;20.20;99.90;;;;;;4967579;28;20048;-59
2022/06/03 13:58:11;;;;;;;3.22;1.00;;;20.30;99.90;;;;;;4944294;29;20043;-58
2022/06/03 14:00:49;;;;;;;4.95;1.02;;;20.20;99.90;;;;;;4941421;29;20094;-58
2022/06/03 14:03:21;;;;;;;2.75;0.90;;;20.10;99.90;;;;;;4943293;29;20082;-59
2022/06/03 14:06:17;;;;;;;3.08;1.10;;;20.10;99.90;;;;;;4940898;29;20047;-59
2022/06/03 14:08:50;;;;;;;3.17;1.15;;;20.10;99.90;;;;;;4942391;29;20085;-58
2022/06/03 14:11:34;;;;;;;5.03;1.08;;;20.00;99.90;;;;;;4942646;29;20039;-59
2022/06/03 14:14:24;;;;;;;3.95;0.90;;;20.00;99.90;;;;;;4940717;29;20048;-57
2022/06/03 14:17:20;;;;;;;2.45;0.85;;;20.00;99.90;;;;;;4942733;29;20054;-58
2022/06/03 14:19:51;;;;;;;2.90;0.90;;;19.90;99.90;;;;;;4925234;29;20055;-58
2022/06/03 14:22:31;;;;;;;3.35;0.93;;;19.80;99.90;;;;;;4940794;29;20139;-58
2022/06/03 14:25:10;;;;;;;3.75;1.00;;;19.70;99.90;;;;;;4925422;29;20523;-58
2022/06/03 14:27:59;;;;;;;3.97;1.10;;;19.60;99.90;;;;;;4942434;29;20047;-58
2022/06/03 14:30:31;;;;;;;4.82;1.00;;;19.70;99.90;;;;;;4953280;29;20182;-58
2022/06/03 14:32:58;;;;;;;4.45;1.10;;;19.60;99.90;;;;;;4961929;29;20081;-58
2022/06/03 14:35:26;;;;;;;4.63;1.27;;;19.60;99.90;;;;;;4959760;29;20503;-58
2022/06/03 14:38:01;;;;;;;5.03;1.10;;;19.50;99.90;;;;;;4962216;29;20047;-58